createdAt,value
2018-01-30T00:00:56.425Z,8.70
2018-01-30T00:03:24.846Z,8.70
2018-01-30T00:05:52.478Z,8.70
2018-01-30T00:08:20.168Z,8.70
2018-01-30T00:10:47.843Z,8.70
2018-01-30T00:13:15.878Z,8.70
2018-01-30T00:15:43.550Z,8.80
2018-01-30T00:18:11.093Z,8.80
2018-01-30T00:20:39.646Z,8.80
2018-01-30T00:23:07.324Z,8.70
2018-01-30T00:25:35.033Z,8.70
2018-01-30T00:28:02.726Z,8.80
2018-01-30T00:30:31.098Z,8.70
2018-01-30T00:32:58.975Z,8.70
2018-01-30T00:35:26.894Z,8.70
2018-01-30T00:37:54.598Z,8.70
2018-01-30T00:40:22.235Z,8.70
2018-01-30T00:42:49.823Z,8.70
2018-01-30T00:45:18.514Z,8.70
2018-01-30T00:47:46.124Z,8.70
2018-01-30T00:50:13.839Z,8.70
2018-01-30T00:52:41.431Z,8.70
2018-01-30T00:55:09.047Z,8.70
2018-01-30T00:57:37.005Z,8.70
2018-01-30T01:00:04.585Z,8.60
2018-01-30T01:02:32.114Z,8.60
2018-01-30T01:04:59.914Z,8.60
2018-01-30T01:07:28.268Z,8.50
2018-01-30T01:09:56.347Z,8.40
2018-01-30T01:12:24.017Z,8.40
2018-01-30T01:14:51.692Z,8.30
2018-01-30T01:17:19.285Z,8.30
2018-01-30T01:19:47.023Z,8.20
2018-01-30T01:22:16.213Z,8.20
2018-01-30T01:24:43.821Z,8.20
2018-01-30T01:27:12.601Z,8.00
2018-01-30T01:29:40.981Z,7.90
2018-01-30T01:32:08.544Z,7.90
2018-01-30T01:34:36.966Z,7.70
2018-01-30T01:37:04.613Z,7.70
2018-01-30T01:39:32.358Z,7.70
2018-01-30T01:42:00.016Z,7.80
2018-01-30T01:44:29.318Z,7.80
2018-01-30T01:46:57.111Z,7.70
2018-01-30T01:49:30.840Z,7.70
2018-01-30T01:51:58.437Z,7.70
2018-01-30T01:54:26.123Z,7.70
2018-01-30T01:56:53.646Z,7.60
2018-01-30T01:59:22.192Z,7.60
2018-01-30T02:01:49.790Z,7.60
2018-01-30T02:04:17.657Z,7.60
2018-01-30T02:06:45.234Z,7.60
2018-01-30T02:09:12.904Z,7.50
2018-01-30T02:11:40.738Z,7.60
2018-01-30T02:14:08.281Z,7.50
2018-01-30T02:16:36.000Z,7.50
2018-01-30T02:19:03.569Z,7.50
2018-01-30T02:21:31.934Z,7.50
2018-01-30T02:24:14.124Z,7.50
2018-01-30T02:26:41.767Z,7.50
2018-01-30T02:29:09.453Z,7.50
2018-01-30T02:31:37.936Z,7.50
2018-01-30T02:34:05.614Z,7.50
2018-01-30T02:36:33.278Z,7.50
2018-01-30T02:39:00.928Z,7.60
2018-01-30T02:41:29.311Z,7.50
2018-01-30T02:43:57.750Z,7.60
2018-01-30T02:46:26.582Z,7.60
2018-01-30T02:48:54.613Z,7.50
2018-01-30T02:51:22.205Z,7.50
2018-01-30T02:53:49.786Z,7.50
2018-01-30T02:56:17.492Z,7.50
2018-01-30T02:58:45.868Z,7.50
2018-01-30T03:01:13.571Z,7.40
2018-01-30T03:03:41.916Z,7.40
2018-01-30T03:06:09.504Z,7.40
2018-01-30T03:08:37.237Z,7.40
2018-01-30T03:11:05.121Z,7.40
2018-01-30T03:13:34.174Z,7.30
2018-01-30T03:16:01.882Z,7.30
2018-01-30T03:18:29.486Z,7.30
2018-01-30T03:20:57.152Z,7.30
2018-01-30T03:23:24.840Z,7.30
2018-01-30T03:25:52.511Z,7.20
2018-01-30T03:28:20.225Z,7.20
2018-01-30T03:30:48.783Z,7.20
2018-01-30T03:33:16.435Z,7.10
2018-01-30T03:35:44.268Z,7.10
2018-01-30T03:38:12.241Z,7.10
2018-01-30T03:40:39.927Z,7.10
2018-01-30T03:43:08.360Z,7.00
2018-01-30T03:45:36.101Z,7.00
2018-01-30T03:48:04.596Z,7.00
2018-01-30T03:50:32.254Z,7.00
2018-01-30T03:53:00.912Z,7.00
2018-01-30T03:55:28.734Z,7.00
2018-01-30T03:57:56.298Z,7.00
2018-01-30T04:00:24.785Z,7.00
2018-01-30T04:02:52.373Z,7.00
2018-01-30T04:05:20.032Z,7.10
2018-01-30T04:07:47.685Z,7.20
2018-01-30T04:10:15.342Z,7.20
2018-01-30T04:12:43.407Z,7.10
2018-01-30T04:15:11.267Z,7.10
2018-01-30T04:17:40.979Z,7.20
2018-01-30T04:20:08.682Z,7.20
2018-01-30T04:22:36.798Z,7.20
2018-01-30T04:25:05.225Z,7.30
2018-01-30T04:27:32.880Z,7.20
2018-01-30T04:30:00.733Z,7.10
2018-01-30T04:32:28.563Z,7.20
2018-01-30T04:34:56.149Z,7.00
2018-01-30T04:37:25.200Z,7.00
2018-01-30T04:39:53.013Z,7.00
2018-01-30T04:42:21.417Z,7.00
2018-01-30T04:44:49.220Z,7.00
2018-01-30T04:47:16.872Z,7.00
2018-01-30T04:49:44.899Z,7.00
2018-01-30T04:52:14.271Z,6.90
2018-01-30T04:54:41.930Z,6.90
2018-01-30T04:57:10.284Z,6.80
2018-01-30T04:59:38.003Z,6.70
2018-01-30T05:02:08.358Z,6.60
2018-01-30T05:04:36.237Z,6.60
2018-01-30T05:07:03.976Z,6.60
2018-01-30T05:09:31.536Z,6.60
2018-01-30T05:11:59.193Z,6.60
2018-01-30T05:14:27.344Z,6.60
2018-01-30T05:16:56.994Z,6.50
2018-01-30T05:19:24.719Z,6.50
2018-01-30T05:21:53.276Z,6.40
2018-01-30T05:24:21.896Z,6.40
2018-01-30T05:26:49.612Z,6.30
2018-01-30T05:29:17.401Z,6.20
2018-01-30T05:31:45.053Z,6.20
2018-01-30T05:34:12.750Z,6.00
2018-01-30T05:36:40.442Z,6.00
2018-01-30T05:39:08.054Z,6.10
2018-01-30T05:41:35.601Z,6.00
2018-01-30T05:44:04.123Z,6.00
2018-01-30T05:46:31.708Z,6.00
2018-01-30T05:48:59.287Z,5.80
2018-01-30T05:51:27.884Z,5.90
2018-01-30T05:53:55.798Z,5.90
2018-01-30T05:56:24.166Z,6.00
2018-01-30T05:58:51.924Z,6.00
2018-01-30T06:01:21.052Z,6.00
2018-01-30T06:03:48.798Z,6.00
2018-01-30T06:06:16.871Z,6.10
2018-01-30T06:08:44.959Z,6.00
2018-01-30T06:11:12.570Z,6.00
2018-01-30T06:13:40.134Z,6.10
2018-01-30T06:16:09.039Z,6.00
2018-01-30T06:18:37.465Z,6.00
2018-01-30T06:21:05.300Z,6.00
2018-01-30T06:23:33.738Z,6.00
2018-01-30T06:26:01.492Z,5.90
2018-01-30T06:28:29.140Z,6.00
2018-01-30T06:30:56.907Z,5.80
2018-01-30T06:33:25.258Z,5.70
2018-01-30T06:35:52.830Z,5.80
2018-01-30T06:38:21.173Z,5.70
2018-01-30T06:43:18.575Z,5.50
2018-01-30T06:45:46.193Z,5.40
2018-01-30T06:48:14.690Z,5.40
2018-01-30T06:50:42.746Z,5.30
2018-01-30T06:53:11.123Z,5.30
2018-01-30T07:15:35.532Z,5.30
2018-01-30T07:18:03.224Z,5.40
2018-01-30T07:20:30.868Z,5.30
2018-01-30T07:22:58.636Z,5.40
2018-01-30T07:25:26.275Z,5.40
2018-01-30T07:27:54.224Z,5.30
2018-01-30T07:30:21.834Z,5.20
2018-01-30T07:32:49.412Z,5.30
2018-01-30T07:35:17.117Z,5.30
2018-01-30T07:37:45.668Z,5.30
2018-01-30T07:40:15.244Z,5.30
2018-01-30T07:42:42.855Z,5.30
2018-01-30T07:47:39.365Z,5.20
2018-01-30T07:50:07.017Z,5.30
2018-01-30T07:52:34.987Z,5.30
2018-01-30T07:55:02.547Z,5.30
2018-01-30T07:57:30.463Z,5.40
2018-01-30T07:59:58.072Z,5.40
2018-01-30T08:02:25.791Z,5.40
2018-01-30T08:04:53.540Z,5.40
2018-01-30T08:07:22.605Z,5.50
2018-01-30T08:09:51.066Z,5.30
2018-01-30T08:12:18.742Z,5.30
2018-01-30T08:14:46.639Z,5.30
2018-01-30T08:17:14.327Z,5.30
2018-01-30T08:19:42.912Z,5.20
2018-01-30T08:22:10.683Z,5.20
2018-01-30T08:24:39.054Z,5.20
2018-01-30T08:29:35.787Z,5.20
2018-01-30T08:32:03.535Z,5.40
2018-01-30T08:34:31.939Z,5.60
2018-01-30T08:37:00.283Z,5.50
2018-01-30T08:39:27.947Z,5.50
2018-01-30T08:41:55.818Z,5.60
2018-01-30T08:44:23.617Z,5.90
2018-01-30T08:46:51.389Z,6.00
2018-01-30T08:49:19.824Z,5.90
2018-01-30T08:51:47.394Z,5.90
2018-01-30T08:54:15.993Z,5.70
2018-01-30T08:56:43.870Z,5.70
2018-01-30T08:59:11.642Z,5.70
2018-01-30T09:01:39.192Z,5.80
2018-01-30T09:04:07.507Z,5.70
2018-01-30T09:06:35.990Z,5.50
2018-01-30T09:09:03.674Z,5.50
2018-01-30T09:11:31.374Z,5.50
2018-01-30T09:13:59.036Z,5.40
2018-01-30T09:16:26.756Z,5.40
2018-01-30T09:18:54.647Z,5.50
2018-01-30T09:21:22.457Z,5.50
2018-01-30T09:23:50.083Z,5.50
2018-01-30T09:26:17.766Z,5.60
2018-01-30T09:28:45.419Z,5.70
2018-01-30T09:31:13.168Z,5.70
2018-01-30T09:33:40.961Z,5.70
2018-01-30T09:36:08.731Z,5.80
2018-01-30T09:38:37.216Z,6.00
2018-01-30T09:41:04.891Z,6.00
2018-01-30T09:43:33.609Z,6.10
2018-01-30T09:46:01.171Z,6.10
2018-01-30T09:48:28.894Z,6.10
2018-01-30T09:50:56.619Z,6.20
2018-01-30T09:53:24.396Z,6.30
2018-01-30T09:55:52.220Z,6.30
2018-01-30T09:58:20.707Z,6.60
2018-01-30T10:00:49.028Z,6.60
2018-01-30T10:03:16.651Z,6.60
2018-01-30T10:05:44.406Z,6.90
2018-01-30T10:08:12.186Z,6.80
2018-01-30T10:10:40.684Z,6.80
2018-01-30T10:13:08.844Z,6.80
2018-01-30T10:15:36.474Z,6.90
2018-01-30T10:18:04.905Z,6.80
2018-01-30T10:20:32.771Z,6.70
2018-01-30T10:23:00.387Z,6.80
2018-01-30T10:25:28.083Z,7.00
2018-01-30T10:27:55.665Z,7.10
2018-01-30T10:30:23.389Z,7.30
2018-01-30T10:32:52.655Z,7.50
2018-01-30T10:35:21.213Z,7.60
2018-01-30T10:37:48.905Z,7.70
2018-01-30T10:40:16.486Z,7.40
2018-01-30T10:42:44.083Z,7.50
2018-01-30T10:45:13.130Z,7.70
2018-01-30T10:47:41.545Z,7.80
2018-01-30T10:50:09.136Z,7.80
2018-01-30T10:52:36.775Z,7.90
2018-01-30T10:55:04.328Z,8.00
2018-01-30T10:57:31.874Z,8.00
2018-01-30T11:00:00.388Z,8.20
2018-01-30T11:02:28.205Z,8.20
2018-01-30T11:04:56.015Z,8.10
2018-01-30T11:07:23.598Z,8.40
2018-01-30T11:09:51.194Z,8.60
2018-01-30T11:12:19.239Z,8.30
2018-01-30T11:14:46.795Z,8.60
2018-01-30T11:17:14.642Z,8.60
2018-01-30T11:19:42.195Z,8.70
2018-01-30T11:22:09.998Z,8.70
2018-01-30T11:24:37.797Z,8.90
2018-01-30T11:27:06.203Z,9.30
2018-01-30T11:29:33.979Z,9.30
2018-01-30T11:32:02.347Z,9.50
2018-01-30T11:34:30.059Z,9.60
2018-01-30T11:36:58.955Z,9.80
2018-01-30T11:39:29.373Z,10.00
2018-01-30T11:41:56.990Z,10.00
2018-01-30T11:44:25.350Z,10.10
2018-01-30T11:46:55.255Z,10.10
2018-01-30T11:49:24.299Z,10.00
2018-01-30T11:51:51.887Z,10.00
2018-01-30T11:54:19.471Z,10.00
2018-01-30T11:56:48.806Z,10.10
2018-01-30T11:59:17.216Z,10.40
2018-01-30T12:01:48.461Z,10.60
2018-01-30T12:04:19.483Z,10.80
2018-01-30T12:06:48.186Z,10.80
2018-01-30T12:09:17.254Z,10.40
2018-01-30T12:11:46.383Z,10.70
2018-01-30T12:14:13.957Z,11.00
2018-01-30T12:24:12.260Z,11.00
2018-01-30T12:26:42.629Z,10.60
2018-01-30T12:29:10.398Z,10.40
2018-01-30T12:31:38.185Z,10.00
2018-01-30T12:34:06.688Z,9.70
2018-01-30T12:36:34.247Z,9.70
2018-01-30T12:39:01.778Z,9.70
2018-01-30T12:41:30.201Z,9.90
2018-01-30T12:43:58.559Z,9.90
2018-01-30T12:46:26.205Z,9.70
2018-01-30T12:48:55.559Z,9.40
2018-01-30T12:51:23.522Z,9.40
2018-01-30T12:53:52.387Z,9.60
2018-01-30T12:56:19.959Z,9.40
2018-01-30T12:58:47.721Z,9.50
2018-01-30T13:01:15.340Z,9.50
2018-01-30T13:03:43.732Z,9.20
2018-01-30T13:06:12.494Z,9.00
2018-01-30T13:13:39.654Z,8.50
2018-01-30T13:16:08.879Z,8.60
2018-01-30T13:18:37.127Z,8.50
2018-01-30T13:21:05.142Z,8.80
2018-01-30T13:23:34.069Z,8.70
2018-01-30T13:26:02.583Z,8.60
2018-01-30T14:20:42.165Z,10.30
2018-01-30T14:28:09.049Z,9.40
2018-01-30T14:30:36.604Z,9.40
2018-01-30T14:33:04.396Z,9.50
2018-01-30T14:42:59.412Z,9.80
2018-01-30T14:45:28.654Z,9.90
2018-01-30T15:22:44.842Z,10.00
2018-01-30T15:30:15.773Z,9.80
2018-01-30T15:47:38.781Z,8.70
2018-01-30T15:50:07.290Z,8.50
2018-01-30T15:52:36.258Z,8.50
2018-01-30T15:55:03.961Z,8.20
2018-01-30T15:57:31.568Z,8.20
2018-01-30T15:59:59.228Z,8.20
2018-01-30T16:07:24.734Z,7.90
2018-01-30T16:09:52.306Z,7.90
2018-01-30T16:12:20.229Z,7.90
2018-01-30T16:14:48.504Z,7.90
2018-01-30T16:17:16.093Z,7.80
2018-01-30T16:19:43.806Z,7.70
2018-01-30T16:24:42.571Z,7.50
2018-01-30T16:27:10.212Z,7.60
2018-01-30T16:29:37.925Z,7.60
2018-01-30T16:32:05.659Z,7.50
2018-01-30T16:34:33.213Z,7.50
2018-01-30T16:37:01.566Z,7.60
2018-01-30T16:39:29.225Z,7.50
